createdAt,value
2023-02-09T00:01:09.884Z,15.48
2023-02-09T00:03:38.279Z,15.70
2023-02-09T00:06:07.289Z,15.63
2023-02-09T00:08:35.801Z,15.82
2023-02-09T00:11:11.138Z,15.85
2023-02-09T00:13:38.853Z,16.73
2023-02-09T00:16:06.837Z,17.13
2023-02-09T00:18:34.290Z,17.50
2023-02-09T00:21:07.336Z,22.98
2023-02-09T00:23:37.479Z,17.95
2023-02-09T00:26:08.837Z,18.40
2023-02-09T00:28:36.370Z,17.23
2023-02-09T00:31:11.656Z,17.35
2023-02-09T00:33:40.983Z,17.23
2023-02-09T00:36:12.046Z,17.67
2023-02-09T00:38:40.517Z,18.10
2023-02-09T00:41:09.091Z,18.30
2023-02-09T00:43:36.598Z,18.25
2023-02-09T00:46:04.089Z,18.45
2023-02-09T00:48:31.423Z,17.55
2023-02-09T00:50:59.072Z,17.20
2023-02-09T00:53:26.571Z,15.93
2023-02-09T00:55:53.813Z,18.13
2023-02-09T00:58:21.085Z,17.70
2023-02-09T01:00:50.626Z,17.58
2023-02-09T01:03:17.810Z,16.33
2023-02-09T01:05:45.024Z,16.40
2023-02-09T01:08:12.314Z,15.93
2023-02-09T01:10:40.050Z,15.82
2023-02-09T01:13:07.274Z,15.63
2023-02-09T01:15:34.645Z,15.00
2023-02-09T01:18:01.872Z,15.38
2023-02-09T01:20:29.253Z,15.60
2023-02-09T01:22:56.410Z,17.13
2023-02-09T01:25:23.714Z,15.52
2023-02-09T01:27:50.948Z,17.08
2023-02-09T01:30:18.519Z,16.60
2023-02-09T01:32:45.797Z,16.08
2023-02-09T01:35:13.068Z,16.05
2023-02-09T01:37:40.386Z,16.42
2023-02-09T01:40:08.887Z,15.63
2023-02-09T01:42:36.164Z,16.33
2023-02-09T01:45:24.704Z,17.13
2023-02-09T01:47:58.676Z,17.25
2023-02-09T01:50:27.194Z,18.08
2023-02-09T01:52:55.500Z,15.60
2023-02-09T01:55:27.916Z,17.48
2023-02-09T01:58:01.409Z,17.80
2023-02-09T02:00:28.699Z,13.27
2023-02-09T02:03:01.035Z,15.68
2023-02-09T02:05:29.473Z,16.90
2023-02-09T02:08:14.751Z,16.40
2023-02-09T02:10:41.924Z,15.50
2023-02-09T02:13:09.265Z,16.60
2023-02-09T02:16:03.038Z,15.30
2023-02-09T02:18:38.312Z,16.20
2023-02-09T02:21:14.822Z,15.20
2023-02-09T02:24:01.124Z,16.20
2023-02-09T02:27:00.944Z,16.23
2023-02-09T02:29:43.812Z,14.80
2023-02-09T02:32:19.852Z,15.95
2023-02-09T02:35:08.062Z,15.23
2023-02-09T02:38:05.956Z,15.48
2023-02-09T02:41:07.484Z,15.25
2023-02-09T02:43:48.155Z,16.70
2023-02-09T02:46:26.589Z,15.82
2023-02-09T02:48:59.735Z,15.27
2023-02-09T02:51:39.048Z,14.98
2023-02-09T02:54:11.529Z,15.10
2023-02-09T02:56:43.337Z,14.68
2023-02-09T02:59:15.033Z,14.98
2023-02-09T03:01:53.908Z,15.65
2023-02-09T03:04:22.465Z,15.13
2023-02-09T03:06:49.692Z,14.40
2023-02-09T03:09:18.695Z,14.50
2023-02-09T03:11:50.003Z,14.30
2023-02-09T03:14:23.253Z,15.13
2023-02-09T03:17:15.005Z,11.57
2023-02-09T03:20:08.222Z,14.60
2023-02-09T03:22:39.876Z,14.30
2023-02-09T03:25:20.107Z,14.40
2023-02-09T03:28:00.729Z,14.43
2023-02-09T03:30:28.326Z,15.90
2023-02-09T03:32:56.470Z,15.65
2023-02-09T03:35:31.421Z,15.52
2023-02-09T03:37:58.582Z,14.55
2023-02-09T03:40:25.746Z,14.60
2023-02-09T03:42:54.585Z,14.32
2023-02-09T03:45:21.741Z,15.70
2023-02-09T03:47:48.959Z,15.45
2023-02-09T03:50:16.449Z,17.95
2023-02-09T03:52:43.658Z,15.07
2023-02-09T03:55:10.834Z,15.57
2023-02-09T03:57:39.392Z,15.48
2023-02-09T04:00:07.742Z,15.23
2023-02-09T04:02:39.389Z,18.08
2023-02-09T04:05:07.081Z,14.40
2023-02-09T04:07:34.424Z,14.90
2023-02-09T04:10:01.768Z,14.75
2023-02-09T04:12:30.213Z,16.30
2023-02-09T04:14:57.415Z,14.75
2023-02-09T04:17:24.739Z,15.90
2023-02-09T04:19:51.969Z,16.48
2023-02-09T04:22:19.117Z,15.15
2023-02-09T04:24:46.364Z,16.85
2023-02-09T04:27:13.528Z,14.82
2023-02-09T04:29:40.877Z,14.68
2023-02-09T04:32:08.193Z,13.20
2023-02-09T04:34:35.434Z,15.15
2023-02-09T04:37:02.581Z,14.63
2023-02-09T04:39:29.877Z,14.93
2023-02-09T04:41:57.035Z,14.88
2023-02-09T04:44:24.493Z,15.68
2023-02-09T04:46:58.702Z,15.00
2023-02-09T04:51:53.009Z,13.15
2023-02-09T04:54:20.284Z,13.38
2023-02-09T04:56:47.571Z,14.15
2023-02-09T04:59:33.500Z,14.10
2023-02-09T05:02:00.649Z,13.65
2023-02-09T05:04:27.950Z,15.88
2023-02-09T05:06:55.134Z,14.38
2023-02-09T05:09:22.461Z,13.38
2023-02-09T05:11:49.736Z,13.98
2023-02-09T05:14:16.915Z,13.63
2023-02-09T05:16:44.149Z,14.85
2023-02-09T05:19:14.630Z,13.93
2023-02-09T05:21:41.936Z,15.35
2023-02-09T05:24:09.100Z,16.88
2023-02-09T05:26:36.620Z,14.50
2023-02-09T05:29:04.576Z,16.23
2023-02-09T05:31:31.923Z,16.90
2023-02-09T05:34:01.093Z,18.90
2023-02-09T05:36:28.397Z,19.15
2023-02-09T05:38:55.616Z,16.42
2023-02-09T05:41:41.457Z,17.23
2023-02-09T05:44:08.977Z,15.27
2023-02-09T05:46:36.273Z,15.07
2023-02-09T05:49:03.462Z,14.95
2023-02-09T05:51:30.616Z,15.52
2023-02-09T05:53:58.031Z,15.95
2023-02-09T05:56:25.309Z,16.80
2023-02-09T05:58:52.473Z,15.82
2023-02-09T06:01:19.685Z,15.45
2023-02-09T06:03:46.964Z,17.70
2023-02-09T06:06:14.150Z,16.88
2023-02-09T06:08:41.381Z,21.55
2023-02-09T06:11:08.521Z,36.08
2023-02-09T06:13:35.884Z,32.08
2023-02-09T06:16:03.488Z,29.90
2023-02-09T06:18:30.799Z,24.65
2023-02-09T06:20:57.967Z,22.60
2023-02-09T06:23:25.247Z,18.55
2023-02-09T06:25:53.259Z,17.10
2023-02-09T06:28:21.146Z,16.80
2023-02-09T06:30:53.330Z,15.68
2023-02-09T06:33:21.119Z,18.65
2023-02-09T06:35:49.479Z,16.95
2023-02-09T06:38:18.115Z,17.65
2023-02-09T06:40:47.398Z,17.10
2023-02-09T06:43:15.454Z,17.25
2023-02-09T06:45:42.944Z,15.13
2023-02-09T06:48:10.407Z,14.65
2023-02-09T06:50:39.089Z,15.35
2023-02-09T06:53:06.673Z,16.10
2023-02-09T06:55:34.352Z,15.45
2023-02-09T06:58:01.571Z,17.77
2023-02-09T07:00:28.965Z,17.25
2023-02-09T07:02:56.298Z,19.27
2023-02-09T07:05:23.602Z,18.58
2023-02-09T07:07:50.964Z,18.73
2023-02-09T07:10:19.386Z,19.15
2023-02-09T07:12:46.591Z,19.40
2023-02-09T07:15:14.959Z,19.45
2023-02-09T07:17:42.438Z,18.98
2023-02-09T07:20:10.543Z,20.15
2023-02-09T07:22:37.757Z,18.58
2023-02-09T07:25:05.350Z,17.58
2023-02-09T07:27:32.630Z,16.35
2023-02-09T07:30:01.088Z,15.35
2023-02-09T07:32:29.741Z,18.13
2023-02-09T07:34:56.913Z,17.77
2023-02-09T07:37:24.061Z,14.93
2023-02-09T07:39:51.463Z,14.13
2023-02-09T07:42:18.765Z,15.00
2023-02-09T07:44:50.543Z,16.45
2023-02-09T07:47:17.792Z,17.00
2023-02-09T07:49:45.115Z,15.07
2023-02-09T07:52:12.524Z,16.95
2023-02-09T07:54:39.718Z,15.30
2023-02-09T07:57:06.975Z,14.63
2023-02-09T07:59:34.269Z,14.77
2023-02-09T08:02:01.652Z,15.95
2023-02-09T08:04:29.524Z,18.30
2023-02-09T08:06:56.948Z,15.07
2023-02-09T08:09:24.172Z,15.50
2023-02-09T08:11:58.839Z,13.45
2023-02-09T08:14:31.063Z,14.57
2023-02-09T08:17:22.818Z,14.02
2023-02-09T08:20:27.620Z,13.07
2023-02-09T08:23:00.018Z,13.77
2023-02-09T08:25:27.320Z,15.18
2023-02-09T08:27:54.652Z,14.68
2023-02-09T08:30:22.009Z,13.80
2023-02-09T08:32:49.305Z,14.60
2023-02-09T08:35:16.883Z,13.60
2023-02-09T08:37:44.202Z,14.32
2023-02-09T08:40:12.404Z,13.00
2023-02-09T08:42:40.293Z,13.27
2023-02-09T08:45:07.982Z,14.02
2023-02-09T08:47:35.160Z,12.98
2023-02-09T08:50:02.658Z,17.38
2023-02-09T08:52:30.113Z,12.60
2023-02-09T08:54:57.374Z,12.32
2023-02-09T08:57:38.171Z,11.35
2023-02-09T09:00:10.827Z,10.75
2023-02-09T09:02:38.042Z,10.10
2023-02-09T09:05:05.564Z,9.52
2023-02-09T09:07:33.087Z,11.13
2023-02-09T09:10:00.878Z,9.93
2023-02-09T09:12:30.587Z,10.05
2023-02-09T09:14:57.785Z,12.07
2023-02-09T09:17:25.015Z,15.48
2023-02-09T09:19:56.466Z,10.45
2023-02-09T09:22:23.905Z,12.60
2023-02-09T09:24:52.499Z,14.18
2023-02-09T09:27:19.738Z,11.50
2023-02-09T09:29:46.891Z,10.70
2023-02-09T09:32:14.229Z,9.80
2023-02-09T09:34:42.194Z,12.68
2023-02-09T09:37:09.545Z,11.05
2023-02-09T09:39:36.718Z,11.55
2023-02-09T09:42:06.236Z,31.95
2023-02-09T09:44:47.103Z,26.38
2023-02-09T09:47:20.483Z,15.55
2023-02-09T09:49:48.303Z,11.13
2023-02-09T09:52:47.616Z,9.93
2023-02-09T09:55:23.288Z,10.80
2023-02-09T09:57:52.696Z,9.73
2023-02-09T10:00:29.756Z,10.10
2023-02-09T10:02:56.978Z,10.20
2023-02-09T10:05:30.179Z,10.68
2023-02-09T10:08:03.205Z,11.07
2023-02-09T10:11:10.253Z,11.63
2023-02-09T10:13:44.591Z,11.30
2023-02-09T10:19:23.749Z,13.07
2023-02-09T10:21:51.084Z,17.75
2023-02-09T10:24:28.105Z,23.45
2023-02-09T10:27:33.646Z,18.02
2023-02-09T10:30:27.115Z,16.73
2023-02-09T10:32:59.747Z,12.27
2023-02-09T10:35:41.903Z,13.68
2023-02-09T10:38:24.761Z,15.27
2023-02-09T10:40:52.243Z,14.65
2023-02-09T10:43:21.201Z,11.18
2023-02-09T10:45:57.231Z,24.42
2023-02-09T10:48:27.034Z,12.73
2023-02-09T10:50:57.154Z,12.35
2023-02-09T10:53:29.300Z,9.00
2023-02-09T10:56:21.310Z,9.32
2023-02-09T10:58:52.958Z,7.47
2023-02-09T11:01:23.927Z,8.20
2023-02-09T11:04:21.845Z,8.07
2023-02-09T11:06:55.279Z,10.98
2023-02-09T11:09:47.129Z,8.35
2023-02-09T11:12:15.012Z,8.85
2023-02-09T11:14:43.234Z,8.35
2023-02-09T11:17:29.773Z,7.53
2023-02-09T11:20:09.026Z,9.13
2023-02-09T11:23:01.824Z,9.00
2023-02-09T11:25:41.332Z,7.68
2023-02-09T11:28:23.593Z,8.50
2023-02-09T11:31:17.521Z,7.88
2023-02-09T11:33:52.426Z,8.17
2023-02-09T11:36:38.120Z,8.35
2023-02-09T11:39:25.122Z,7.53
2023-02-09T11:42:17.702Z,10.32
2023-02-09T11:44:58.840Z,8.48
2023-02-09T11:47:48.099Z,8.45
2023-02-09T11:50:26.778Z,7.85
2023-02-09T11:53:00.561Z,7.78
2023-02-09T11:55:38.469Z,6.80
2023-02-09T11:58:30.328Z,8.40
2023-02-09T12:01:24.298Z,7.10
2023-02-09T12:04:15.634Z,8.48
2023-02-09T12:06:53.450Z,7.95
2023-02-09T12:09:37.483Z,8.45
2023-02-09T12:12:29.963Z,8.77
2023-02-09T12:15:15.811Z,11.02
2023-02-09T12:17:54.968Z,7.00
2023-02-09T12:20:37.290Z,7.90
2023-02-09T12:23:35.704Z,6.93
2023-02-09T12:26:09.165Z,7.57
2023-02-09T12:28:43.593Z,7.85
2023-02-09T12:31:20.089Z,7.40
2023-02-09T12:33:47.420Z,7.28
2023-02-09T12:36:14.541Z,7.10
2023-02-09T12:38:55.977Z,6.65
2023-02-09T12:41:49.524Z,7.78
2023-02-09T12:44:16.629Z,6.93
2023-02-09T12:46:52.938Z,7.78
2023-02-09T12:49:27.481Z,8.75
2023-02-09T12:52:00.424Z,9.10
2023-02-09T12:54:42.744Z,7.05
2023-02-09T12:57:16.351Z,7.15
2023-02-09T12:59:52.448Z,8.40
2023-02-09T13:02:50.625Z,8.93
2023-02-09T13:05:30.107Z,7.97
2023-02-09T13:08:00.527Z,7.70
2023-02-09T13:10:43.241Z,9.30
2023-02-09T13:13:19.530Z,8.52
2023-02-09T13:16:04.528Z,8.13
2023-02-09T13:19:03.214Z,8.63
2023-02-09T13:21:42.262Z,8.43
2023-02-09T13:24:19.400Z,8.02
2023-02-09T13:26:51.781Z,8.95
2023-02-09T13:29:24.249Z,8.07
2023-02-09T13:32:16.090Z,9.00
2023-02-09T13:34:55.811Z,13.25
2023-02-09T13:37:32.041Z,9.35
2023-02-09T13:40:03.076Z,9.60
2023-02-09T13:42:35.856Z,9.52
2023-02-09T13:45:03.220Z,9.18
2023-02-09T13:47:30.948Z,8.70
2023-02-09T13:50:18.426Z,8.25
2023-02-09T13:52:45.872Z,8.15
2023-02-09T13:55:20.232Z,8.82
2023-02-09T14:00:29.762Z,9.55
2023-02-09T14:03:03.984Z,9.50
2023-02-09T14:05:42.648Z,8.27
2023-02-09T14:08:12.955Z,8.60
2023-02-09T14:10:44.186Z,8.13
2023-02-09T14:13:20.783Z,8.85
2023-02-09T14:16:09.735Z,8.00
2023-02-09T14:18:46.079Z,8.48
2023-02-09T14:21:16.273Z,8.40
2023-02-09T14:23:49.102Z,8.25
2023-02-09T14:26:22.260Z,9.68
2023-02-09T14:29:15.157Z,8.80
2023-02-09T14:31:50.470Z,8.82
2023-02-09T14:34:27.115Z,7.68
2023-02-09T14:37:00.445Z,9.85
2023-02-09T14:39:31.154Z,8.88
2023-02-09T14:42:15.110Z,8.82
2023-02-09T14:44:52.853Z,6.85
2023-02-09T14:47:30.877Z,9.05
2023-02-09T14:49:59.209Z,8.80
2023-02-09T14:52:33.246Z,9.45
2023-02-09T14:55:07.081Z,9.20
2023-02-09T14:57:36.351Z,9.38
2023-02-09T15:00:25.052Z,10.15
2023-02-09T15:02:53.550Z,10.35
2023-02-09T15:05:22.715Z,9.45
2023-02-09T15:08:03.591Z,9.20
2023-02-09T15:10:38.890Z,9.20
2023-02-09T15:13:06.586Z,9.07
2023-02-09T15:15:37.798Z,9.68
2023-02-09T15:18:12.167Z,9.65
2023-02-09T15:23:07.052Z,9.50
2023-02-09T15:25:34.301Z,10.10
2023-02-09T15:28:02.945Z,8.63
2023-02-09T15:30:34.541Z,8.75
2023-02-09T15:33:02.109Z,10.45
2023-02-09T15:35:30.003Z,10.23
2023-02-09T15:37:59.843Z,9.98
2023-02-09T15:40:51.489Z,9.93
2023-02-09T15:43:39.365Z,9.88
2023-02-09T15:46:26.535Z,10.93
2023-02-09T15:48:53.826Z,12.07
2023-02-09T15:51:22.582Z,11.50
2023-02-09T15:53:50.667Z,11.30
2023-02-09T15:56:18.911Z,11.73
2023-02-09T15:58:46.796Z,11.38
2023-02-09T16:01:16.716Z,12.68
2023-02-09T16:03:44.638Z,13.80
2023-02-09T16:06:19.310Z,15.25
2023-02-09T16:11:24.665Z,11.18
2023-02-09T16:13:52.052Z,13.57
2023-02-09T16:16:19.328Z,18.25
2023-02-09T16:18:47.602Z,13.20
2023-02-09T16:21:27.993Z,14.43
2023-02-09T16:23:57.404Z,14.98
2023-02-09T16:26:26.745Z,14.68
2023-02-09T16:28:54.838Z,15.23
2023-02-09T16:31:22.786Z,15.07
2023-02-09T16:33:51.443Z,14.23
2023-02-09T16:36:24.440Z,14.85
2023-02-09T16:38:51.797Z,14.85
2023-02-09T16:41:39.438Z,14.77
2023-02-09T16:44:20.387Z,15.07
2023-02-09T16:46:50.307Z,17.02
2023-02-09T16:49:40.462Z,16.58
2023-02-09T16:52:21.746Z,15.68
2023-02-09T16:54:52.290Z,15.57
2023-02-09T16:57:23.100Z,16.92
2023-02-09T16:59:51.241Z,16.40
2023-02-09T17:02:50.915Z,14.43
2023-02-09T17:05:31.632Z,14.98
2023-02-09T17:08:02.449Z,14.27
2023-02-09T17:10:34.392Z,14.35
2023-02-09T17:13:02.153Z,13.85
2023-02-09T17:15:32.454Z,35.10
2023-02-09T17:18:04.622Z,29.40
2023-02-09T17:20:44.930Z,20.35
2023-02-09T17:23:23.432Z,19.38
2023-02-09T17:25:54.942Z,18.13
2023-02-09T17:28:24.073Z,17.23
2023-02-09T17:30:55.462Z,17.45
2023-02-09T17:33:26.090Z,17.05
2023-02-09T17:36:24.790Z,18.77
2023-02-09T17:38:45.540Z,16.65
2023-02-09T17:41:28.797Z,15.48
2023-02-09T17:44:14.018Z,16.52
2023-02-09T17:46:46.997Z,15.60
2023-02-09T17:49:14.271Z,17.15
2023-02-09T17:51:44.647Z,15.27
2023-02-09T17:54:14.381Z,16.50
2023-02-09T17:56:41.900Z,16.90
2023-02-09T17:59:09.274Z,17.77
2023-02-09T18:01:42.812Z,16.75
2023-02-09T18:04:19.895Z,17.17
2023-02-09T18:06:47.687Z,16.05
2023-02-09T18:09:15.178Z,15.70
2023-02-09T18:11:45.107Z,16.23
2023-02-09T18:14:16.731Z,15.07
2023-02-09T18:16:45.549Z,14.15
2023-02-09T18:19:14.083Z,15.65
2023-02-09T18:21:50.081Z,14.13
2023-02-09T18:24:18.898Z,15.45
2023-02-09T18:26:47.974Z,16.17
2023-02-09T18:29:15.322Z,15.45
2023-02-09T18:31:42.866Z,14.38
2023-02-09T18:34:10.966Z,14.23
2023-02-09T18:36:38.293Z,14.05
2023-02-09T18:39:05.563Z,15.73
2023-02-09T18:41:32.927Z,15.45
2023-02-09T18:44:00.290Z,15.38
2023-02-09T18:46:27.674Z,20.38
2023-02-09T18:48:54.988Z,17.50
2023-02-09T18:51:22.761Z,18.48
2023-02-09T18:53:51.268Z,16.48
2023-02-09T18:56:22.778Z,17.70
2023-02-09T18:58:52.427Z,16.73
2023-02-09T19:01:21.522Z,16.77
2023-02-09T19:03:53.225Z,16.73
2023-02-09T19:06:22.143Z,17.58
2023-02-09T19:08:50.641Z,16.20
2023-02-09T19:11:20.385Z,17.75
2023-02-09T19:14:07.914Z,17.23
2023-02-09T19:16:36.839Z,15.43
2023-02-09T19:19:04.718Z,17.95
2023-02-09T19:21:32.415Z,16.02
2023-02-09T19:23:59.681Z,16.13
2023-02-09T19:26:26.907Z,15.75
2023-02-09T19:28:56.964Z,16.88
2023-02-09T19:31:24.931Z,17.20
2023-02-09T19:33:59.311Z,17.00
2023-02-09T19:36:28.482Z,17.35
2023-02-09T19:38:56.367Z,16.67
2023-02-09T19:41:25.700Z,17.20
2023-02-09T19:43:56.996Z,15.90
2023-02-09T19:46:25.207Z,16.40
2023-02-09T19:48:53.904Z,15.38
2023-02-09T19:51:22.086Z,15.02
2023-02-09T19:53:49.556Z,17.80
2023-02-09T19:56:20.736Z,16.65
2023-02-09T19:58:47.968Z,17.27
2023-02-09T20:01:15.898Z,16.85
2023-02-09T20:03:43.134Z,16.73
2023-02-09T20:06:13.579Z,17.75
2023-02-09T20:08:41.175Z,17.98
2023-02-09T20:11:19.795Z,17.98
2023-02-09T20:13:50.945Z,17.08
2023-02-09T20:16:22.377Z,29.40
2023-02-09T20:18:50.426Z,21.27
2023-02-09T20:21:19.107Z,19.17
2023-02-09T20:23:47.174Z,17.60
2023-02-09T20:26:26.246Z,16.38
2023-02-09T20:28:54.114Z,17.98
2023-02-09T20:31:23.790Z,16.98
2023-02-09T20:33:51.517Z,17.25
2023-02-09T20:36:19.169Z,16.52
2023-02-09T20:38:46.581Z,17.52
2023-02-09T20:41:18.468Z,16.73
2023-02-09T20:44:04.738Z,17.45
2023-02-09T20:46:51.418Z,17.33
2023-02-09T20:49:18.985Z,16.17
2023-02-09T20:51:46.918Z,16.75
2023-02-09T20:54:14.850Z,18.17
2023-02-09T20:56:42.308Z,17.85
2023-02-09T20:59:11.523Z,18.10
2023-02-09T21:01:39.955Z,16.95
2023-02-09T21:04:07.663Z,16.98
2023-02-09T21:06:39.850Z,15.77
2023-02-09T21:09:08.936Z,16.42
2023-02-09T21:11:36.606Z,18.05
2023-02-09T21:14:04.364Z,17.17
2023-02-09T21:16:32.158Z,17.48
2023-02-09T21:19:00.072Z,17.85
2023-02-09T21:21:27.637Z,17.38
2023-02-09T21:23:55.026Z,17.60
2023-02-09T21:26:24.097Z,16.15
2023-02-09T21:28:56.250Z,17.35
2023-02-09T21:31:26.551Z,18.63
2023-02-09T21:33:53.962Z,17.88
2023-02-09T21:36:21.353Z,17.55
2023-02-09T21:38:48.606Z,18.52
2023-02-09T21:41:40.141Z,19.30
2023-02-09T21:44:09.841Z,18.17
2023-02-09T21:46:37.264Z,18.58
2023-02-09T21:49:05.139Z,18.25
2023-02-09T21:51:32.407Z,18.98
2023-02-09T21:53:59.653Z,18.10
2023-02-09T21:56:26.865Z,23.35
2023-02-09T21:58:54.043Z,21.70
2023-02-09T22:01:21.245Z,16.55
2023-02-09T22:03:50.081Z,17.83
2023-02-09T22:06:17.630Z,17.00
2023-02-09T22:08:44.846Z,16.75
2023-02-09T22:11:12.245Z,16.48
2023-02-09T22:13:39.649Z,14.93
2023-02-09T22:16:08.503Z,14.25
2023-02-09T22:18:36.604Z,15.23
2023-02-09T22:21:07.765Z,13.95
2023-02-09T22:23:35.106Z,14.18
2023-02-09T22:26:04.648Z,14.85
2023-02-09T22:28:33.910Z,16.10
2023-02-09T22:31:14.415Z,15.68
2023-02-09T22:33:42.312Z,16.83
2023-02-09T22:36:16.082Z,17.63
2023-02-09T22:38:48.452Z,16.08
2023-02-09T22:41:21.681Z,16.02
2023-02-09T22:43:51.246Z,17.20
2023-02-09T22:46:19.693Z,17.23
2023-02-09T22:48:58.502Z,17.38
2023-02-09T22:51:28.514Z,16.88
2023-02-09T22:53:57.731Z,17.45
2023-02-09T22:56:25.630Z,18.02
2023-02-09T22:58:54.119Z,17.92
2023-02-09T23:01:21.820Z,17.08
2023-02-09T23:03:49.280Z,18.42
2023-02-09T23:06:19.413Z,28.60
2023-02-09T23:08:47.763Z,26.85
2023-02-09T23:11:17.301Z,20.00
2023-02-09T23:13:46.192Z,16.15
2023-02-09T23:16:20.535Z,15.55
2023-02-09T23:18:53.842Z,16.00
2023-02-09T23:21:23.313Z,11.75
2023-02-09T23:23:51.164Z,15.25
2023-02-09T23:26:19.374Z,16.27
2023-02-09T23:28:47.769Z,14.38
2023-02-09T23:31:17.921Z,13.90
2023-02-09T23:33:45.581Z,13.88
2023-02-09T23:36:16.542Z,13.77
2023-02-09T23:38:44.791Z,15.95
2023-02-09T23:41:15.290Z,15.57
2023-02-09T23:43:43.484Z,14.93
2023-02-09T23:46:14.080Z,15.48
2023-02-09T23:48:41.556Z,15.43
2023-02-09T23:51:13.156Z,15.55
2023-02-09T23:53:40.369Z,14.93
2023-02-09T23:56:07.863Z,15.73
2023-02-09T23:58:37.920Z,15.63
